sensor_id;sensor_type;location;lat;lon;timestamp;temperature;humidity
19214;DHT22;9741;51.020;5.304;2022-08-21T00:01:15;15.50;58.10
19214;DHT22;9741;51.020;5.304;2022-08-21T00:03:49;15.40;58.00
19214;DHT22;9741;51.020;5.304;2022-08-21T00:06:18;15.40;58.00
19214;DHT22;9741;51.020;5.304;2022-08-21T00:08:55;15.40;58.00
19214;DHT22;9741;51.020;5.304;2022-08-21T00:11:24;15.30;58.00
19214;DHT22;9741;51.020;5.304;2022-08-21T00:14:01;15.30;58.10
19214;DHT22;9741;51.020;5.304;2022-08-21T00:16:32;15.30;58.10
19214;DHT22;9741;51.020;5.304;2022-08-21T00:19:00;15.30;58.20
19214;DHT22;9741;51.020;5.304;2022-08-21T00:21:34;15.20;58.10
19214;DHT22;9741;51.020;5.304;2022-08-21T00:24:07;15.20;58.20
19214;DHT22;9741;51.020;5.304;2022-08-21T00:26:35;15.20;58.30
19214;DHT22;9741;51.020;5.304;2022-08-21T00:29:07;15.20;58.40
19214;DHT22;9741;51.020;5.304;2022-08-21T00:31:35;15.10;58.30
19214;DHT22;9741;51.020;5.304;2022-08-21T00:34:03;15.20;58.50
19214;DHT22;9741;51.020;5.304;2022-08-21T00:36:45;15.10;58.40
19214;DHT22;9741;51.020;5.304;2022-08-21T00:39:15;15.10;58.40
19214;DHT22;9741;51.020;5.304;2022-08-21T00:41:46;15.10;58.40
19214;DHT22;9741;51.020;5.304;2022-08-21T00:44:21;15.10;58.50
19214;DHT22;9741;51.020;5.304;2022-08-21T00:46:52;15.00;58.40
19214;DHT22;9741;51.020;5.304;2022-08-21T00:49:30;15.10;58.60
19214;DHT22;9741;51.020;5.304;2022-08-21T00:52:10;15.00;58.60
19214;DHT22;9741;51.020;5.304;2022-08-21T00:54:41;15.00;58.60
19214;DHT22;9741;51.020;5.304;2022-08-21T00:57:25;15.00;58.60
19214;DHT22;9741;51.020;5.304;2022-08-21T00:59:59;15.00;58.70
19214;DHT22;9741;51.020;5.304;2022-08-21T01:02:35;14.90;58.60
19214;DHT22;9741;51.020;5.304;2022-08-21T01:05:10;14.90;58.70
19214;DHT22;9741;51.020;5.304;2022-08-21T01:07:43;14.90;58.80
19214;DHT22;9741;51.020;5.304;2022-08-21T01:10:15;14.90;58.80
19214;DHT22;9741;51.020;5.304;2022-08-21T01:12:44;14.80;58.70
19214;DHT22;9741;51.020;5.304;2022-08-21T01:15:14;14.80;58.80
19214;DHT22;9741;51.020;5.304;2022-08-21T01:17:45;14.80;58.80
19214;DHT22;9741;51.020;5.304;2022-08-21T01:20:20;14.80;58.80
19214;DHT22;9741;51.020;5.304;2022-08-21T01:22:55;14.70;58.80
19214;DHT22;9741;51.020;5.304;2022-08-21T01:25:25;14.70;58.80
19214;DHT22;9741;51.020;5.304;2022-08-21T01:27:55;14.70;58.90
19214;DHT22;9741;51.020;5.304;2022-08-21T01:30:28;14.70;58.90
19214;DHT22;9741;51.020;5.304;2022-08-21T01:32:58;14.70;59.00
19214;DHT22;9741;51.020;5.304;2022-08-21T01:35:27;14.60;58.90
19214;DHT22;9741;51.020;5.304;2022-08-21T01:37:59;14.60;59.00
19214;DHT22;9741;51.020;5.304;2022-08-21T01:40:29;14.60;59.00
19214;DHT22;9741;51.020;5.304;2022-08-21T01:42:57;14.60;59.10
19214;DHT22;9741;51.020;5.304;2022-08-21T01:45:28;14.50;59.00
19214;DHT22;9741;51.020;5.304;2022-08-21T01:47:58;14.50;59.00
19214;DHT22;9741;51.020;5.304;2022-08-21T01:50:25;14.50;59.00
19214;DHT22;9741;51.020;5.304;2022-08-21T01:52:53;14.50;59.00
19214;DHT22;9741;51.020;5.304;2022-08-21T01:55:38;14.50;59.00
19214;DHT22;9741;51.020;5.304;2022-08-21T01:58:08;14.50;59.10
19214;DHT22;9741;51.020;5.304;2022-08-21T02:00:39;14.50;59.10
19214;DHT22;9741;51.020;5.304;2022-08-21T02:03:07;14.40;59.00
19214;DHT22;9741;51.020;5.304;2022-08-21T02:05:35;14.40;59.00
19214;DHT22;9741;51.020;5.304;2022-08-21T02:08:06;14.40;59.10
19214;DHT22;9741;51.020;5.304;2022-08-21T02:10:46;14.40;59.10
19214;DHT22;9741;51.020;5.304;2022-08-21T02:13:23;14.40;59.10
19214;DHT22;9741;51.020;5.304;2022-08-21T02:15:52;14.30;59.00
19214;DHT22;9741;51.020;5.304;2022-08-21T02:18:23;14.30;59.00
19214;DHT22;9741;51.020;5.304;2022-08-21T02:20:52;14.30;59.10
19214;DHT22;9741;51.020;5.304;2022-08-21T02:23:24;14.30;59.10
19214;DHT22;9741;51.020;5.304;2022-08-21T02:26:04;14.30;59.10
19214;DHT22;9741;51.020;5.304;2022-08-21T02:28:38;14.20;59.00
19214;DHT22;9741;51.020;5.304;2022-08-21T02:31:05;14.20;59.10
19214;DHT22;9741;51.020;5.304;2022-08-21T02:33:36;14.20;59.10
19214;DHT22;9741;51.020;5.304;2022-08-21T02:36:17;14.10;59.00
19214;DHT22;9741;51.020;5.304;2022-08-21T02:38:47;14.10;59.10
19214;DHT22;9741;51.020;5.304;2022-08-21T02:41:20;14.10;59.10
19214;DHT22;9741;51.020;5.304;2022-08-21T02:43:53;14.00;59.10
19214;DHT22;9741;51.020;5.304;2022-08-21T02:46:28;14.00;59.10
19214;DHT22;9741;51.020;5.304;2022-08-21T02:48:57;14.00;59.10
19214;DHT22;9741;51.020;5.304;2022-08-21T02:51:28;14.00;59.10
19214;DHT22;9741;51.020;5.304;2022-08-21T02:54:04;14.00;59.10
19214;DHT22;9741;51.020;5.304;2022-08-21T02:56:35;13.90;59.10
19214;DHT22;9741;51.020;5.304;2022-08-21T02:59:05;13.90;59.10
19214;DHT22;9741;51.020;5.304;2022-08-21T03:01:35;13.90;59.20
19214;DHT22;9741;51.020;5.304;2022-08-21T03:04:06;13.90;59.20
19214;DHT22;9741;51.020;5.304;2022-08-21T03:06:41;13.90;59.30
19214;DHT22;9741;51.020;5.304;2022-08-21T03:09:12;13.90;59.30
19214;DHT22;9741;51.020;5.304;2022-08-21T03:11:45;13.80;59.20
19214;DHT22;9741;51.020;5.304;2022-08-21T03:14:15;13.80;59.20
19214;DHT22;9741;51.020;5.304;2022-08-21T03:16:43;13.80;59.20
19214;DHT22;9741;51.020;5.304;2022-08-21T03:19:13;13.80;59.20
19214;DHT22;9741;51.020;5.304;2022-08-21T03:21:41;13.70;59.20
19214;DHT22;9741;51.020;5.304;2022-08-21T03:24:12;13.70;59.20
19214;DHT22;9741;51.020;5.304;2022-08-21T03:26:43;13.70;59.30
19214;DHT22;9741;51.020;5.304;2022-08-21T03:29:13;13.70;59.30
19214;DHT22;9741;51.020;5.304;2022-08-21T03:31:48;13.70;59.30
19214;DHT22;9741;51.020;5.304;2022-08-21T03:34:18;13.70;59.30
19214;DHT22;9741;51.020;5.304;2022-08-21T03:36:50;13.60;59.20
19214;DHT22;9741;51.020;5.304;2022-08-21T03:39:26;13.60;59.30
19214;DHT22;9741;51.020;5.304;2022-08-21T03:42:05;13.60;59.30
19214;DHT22;9741;51.020;5.304;2022-08-21T03:44:38;13.60;59.40
19214;DHT22;9741;51.020;5.304;2022-08-21T03:47:07;13.60;59.40
19214;DHT22;9741;51.020;5.304;2022-08-21T03:49:39;13.60;59.40
19214;DHT22;9741;51.020;5.304;2022-08-21T03:52:10;13.50;59.40
19214;DHT22;9741;51.020;5.304;2022-08-21T03:54:42;13.50;59.40
19214;DHT22;9741;51.020;5.304;2022-08-21T03:57:18;13.50;59.40
19214;DHT22;9741;51.020;5.304;2022-08-21T03:59:49;13.50;59.40
19214;DHT22;9741;51.020;5.304;2022-08-21T04:02:21;13.40;59.30
19214;DHT22;9741;51.020;5.304;2022-08-21T04:04:57;13.40;59.40
19214;DHT22;9741;51.020;5.304;2022-08-21T04:07:34;13.40;59.40
19214;DHT22;9741;51.020;5.304;2022-08-21T04:10:09;13.40;59.40
19214;DHT22;9741;51.020;5.304;2022-08-21T04:12:39;13.40;59.40
19214;DHT22;9741;51.020;5.304;2022-08-21T04:15:09;13.40;59.50
19214;DHT22;9741;51.020;5.304;2022-08-21T04:17:47;13.40;59.50
19214;DHT22;9741;51.020;5.304;2022-08-21T04:20:15;13.40;59.50
19214;DHT22;9741;51.020;5.304;2022-08-21T04:22:53;13.30;59.40
19214;DHT22;9741;51.020;5.304;2022-08-21T04:25:29;13.30;59.50
19214;DHT22;9741;51.020;5.304;2022-08-21T04:28:03;13.30;59.50
19214;DHT22;9741;51.020;5.304;2022-08-21T04:30:33;13.30;59.50
19214;DHT22;9741;51.020;5.304;2022-08-21T04:33:01;13.20;59.40
19214;DHT22;9741;51.020;5.304;2022-08-21T04:35:31;13.20;59.50
19214;DHT22;9741;51.020;5.304;2022-08-21T04:38:01;13.20;59.50
19214;DHT22;9741;51.020;5.304;2022-08-21T04:40:32;13.20;59.60
19214;DHT22;9741;51.020;5.304;2022-08-21T04:43:12;13.20;59.70
19214;DHT22;9741;51.020;5.304;2022-08-21T04:45:45;13.30;59.80
19214;DHT22;9741;51.020;5.304;2022-08-21T04:48:22;13.30;59.80
19214;DHT22;9741;51.020;5.304;2022-08-21T04:50:54;13.30;59.80
19214;DHT22;9741;51.020;5.304;2022-08-21T04:53:34;13.30;59.80
19214;DHT22;9741;51.020;5.304;2022-08-21T04:56:14;13.30;59.80
19214;DHT22;9741;51.020;5.304;2022-08-21T04:58:47;13.30;59.90
19214;DHT22;9741;51.020;5.304;2022-08-21T05:01:21;13.30;59.90
19214;DHT22;9741;51.020;5.304;2022-08-21T05:03:56;13.30;59.90
19214;DHT22;9741;51.020;5.304;2022-08-21T05:06:31;13.30;59.90
19214;DHT22;9741;51.020;5.304;2022-08-21T05:09:01;13.40;60.00
19214;DHT22;9741;51.020;5.304;2022-08-21T05:11:30;13.40;60.10
19214;DHT22;9741;51.020;5.304;2022-08-21T05:14:07;13.40;60.10
19214;DHT22;9741;51.020;5.304;2022-08-21T05:16:42;13.50;60.20
19214;DHT22;9741;51.020;5.304;2022-08-21T05:19:11;13.50;60.20
19214;DHT22;9741;51.020;5.304;2022-08-21T05:21:43;13.60;60.30
19214;DHT22;9741;51.020;5.304;2022-08-21T05:24:21;13.60;60.30
19214;DHT22;9741;51.020;5.304;2022-08-21T05:26:49;13.60;60.30
19214;DHT22;9741;51.020;5.304;2022-08-21T05:29:24;13.70;60.40
19214;DHT22;9741;51.020;5.304;2022-08-21T05:31:54;13.70;60.50
19214;DHT22;9741;51.020;5.304;2022-08-21T05:34:25;13.80;60.60
19214;DHT22;9741;51.020;5.304;2022-08-21T05:37:01;13.80;60.60
19214;DHT22;9741;51.020;5.304;2022-08-21T05:39:36;13.90;60.80
19214;DHT22;9741;51.020;5.304;2022-08-21T05:42:06;13.90;60.70
19214;DHT22;9741;51.020;5.304;2022-08-21T05:44:49;14.00;60.80
19214;DHT22;9741;51.020;5.304;2022-08-21T05:47:19;14.10;60.90
19214;DHT22;9741;51.020;5.304;2022-08-21T05:49:48;14.10;60.90
19214;DHT22;9741;51.020;5.304;2022-08-21T05:52:25;14.20;61.00
19214;DHT22;9741;51.020;5.304;2022-08-21T05:55:01;14.30;61.00
19214;DHT22;9741;51.020;5.304;2022-08-21T05:57:30;14.40;61.10
19214;DHT22;9741;51.020;5.304;2022-08-21T06:00:11;14.50;61.20
19214;DHT22;9741;51.020;5.304;2022-08-21T06:02:39;14.60;61.30
19214;DHT22;9741;51.020;5.304;2022-08-21T06:05:10;14.60;61.20
19214;DHT22;9741;51.020;5.304;2022-08-21T06:07:41;14.70;61.20
19214;DHT22;9741;51.020;5.304;2022-08-21T06:10:10;14.80;61.30
19214;DHT22;9741;51.020;5.304;2022-08-21T06:12:45;14.90;61.30
19214;DHT22;9741;51.020;5.304;2022-08-21T06:15:16;15.00;61.40
19214;DHT22;9741;51.020;5.304;2022-08-21T06:17:47;15.10;61.40
19214;DHT22;9741;51.020;5.304;2022-08-21T06:20:17;15.20;61.40
19214;DHT22;9741;51.020;5.304;2022-08-21T06:22:47;15.30;61.50
19214;DHT22;9741;51.020;5.304;2022-08-21T06:25:18;15.40;61.60
19214;DHT22;9741;51.020;5.304;2022-08-21T06:27:45;15.50;61.70
19214;DHT22;9741;51.020;5.304;2022-08-21T06:30:31;15.60;61.70
19214;DHT22;9741;51.020;5.304;2022-08-21T06:33:02;15.70;61.70
19214;DHT22;9741;51.020;5.304;2022-08-21T06:35:38;15.80;61.70
19214;DHT22;9741;51.020;5.304;2022-08-21T06:38:14;15.80;61.60
19214;DHT22;9741;51.020;5.304;2022-08-21T06:40:56;16.00;61.70
19214;DHT22;9741;51.020;5.304;2022-08-21T06:43:27;16.00;61.60
19214;DHT22;9741;51.020;5.304;2022-08-21T06:46:00;16.10;61.60
19214;DHT22;9741;51.020;5.304;2022-08-21T06:48:29;16.20;61.60
19214;DHT22;9741;51.020;5.304;2022-08-21T06:50:59;16.30;61.70
19214;DHT22;9741;51.020;5.304;2022-08-21T06:53:29;16.40;61.70
19214;DHT22;9741;51.020;5.304;2022-08-21T06:56:01;16.60;61.80
19214;DHT22;9741;51.020;5.304;2022-08-21T06:58:39;16.70;61.80
19214;DHT22;9741;51.020;5.304;2022-08-21T07:01:10;16.80;61.70
19214;DHT22;9741;51.020;5.304;2022-08-21T07:03:42;17.00;62.00
19214;DHT22;9741;51.020;5.304;2022-08-21T07:06:19;17.40;62.90
19214;DHT22;9741;51.020;5.304;2022-08-21T07:08:51;18.10;63.40
19214;DHT22;9741;51.020;5.304;2022-08-21T07:11:23;19.20;63.30
19214;DHT22;9741;51.020;5.304;2022-08-21T07:13:52;20.50;62.50
19214;DHT22;9741;51.020;5.304;2022-08-21T07:16:32;21.70;61.20
19214;DHT22;9741;51.020;5.304;2022-08-21T07:19:00;23.00;59.60
19214;DHT22;9741;51.020;5.304;2022-08-21T07:21:30;24.20;58.40
19214;DHT22;9741;51.020;5.304;2022-08-21T07:24:00;25.20;56.60
19214;DHT22;9741;51.020;5.304;2022-08-21T07:26:39;26.10;55.20
19214;DHT22;9741;51.020;5.304;2022-08-21T07:29:17;26.80;53.60
19214;DHT22;9741;51.020;5.304;2022-08-21T07:31:58;27.40;52.50
19214;DHT22;9741;51.020;5.304;2022-08-21T07:34:29;28.10;51.50
19214;DHT22;9741;51.020;5.304;2022-08-21T07:36:57;28.60;50.30
19214;DHT22;9741;51.020;5.304;2022-08-21T07:39:35;29.10;49.20
19214;DHT22;9741;51.020;5.304;2022-08-21T07:42:16;29.40;48.20
19214;DHT22;9741;51.020;5.304;2022-08-21T07:44:48;29.60;47.40
19214;DHT22;9741;51.020;5.304;2022-08-21T07:47:19;29.40;47.20
19214;DHT22;9741;51.020;5.304;2022-08-21T07:49:47;29.20;46.10
19214;DHT22;9741;51.020;5.304;2022-08-21T07:52:19;29.10;46.20
19214;DHT22;9741;51.020;5.304;2022-08-21T07:54:47;29.00;46.20
19214;DHT22;9741;51.020;5.304;2022-08-21T07:57:14;29.00;46.10
19214;DHT22;9741;51.020;5.304;2022-08-21T07:59:46;29.10;46.10
19214;DHT22;9741;51.020;5.304;2022-08-21T08:02:29;29.10;45.90
19214;DHT22;9741;51.020;5.304;2022-08-21T08:05:00;29.30;45.70
19214;DHT22;9741;51.020;5.304;2022-08-21T08:07:27;29.50;45.40
19214;DHT22;9741;51.020;5.304;2022-08-21T08:09:58;29.70;44.90
19214;DHT22;9741;51.020;5.304;2022-08-21T08:12:34;30.00;44.70
19214;DHT22;9741;51.020;5.304;2022-08-21T08:15:11;30.20;44.30
19214;DHT22;9741;51.020;5.304;2022-08-21T08:17:43;30.50;43.60
19214;DHT22;9741;51.020;5.304;2022-08-21T08:20:16;30.60;43.20
19214;DHT22;9741;51.020;5.304;2022-08-21T08:22:46;30.80;42.80
19214;DHT22;9741;51.020;5.304;2022-08-21T08:25:27;31.00;43.00
19214;DHT22;9741;51.020;5.304;2022-08-21T08:28:10;31.10;42.00
19214;DHT22;9741;51.020;5.304;2022-08-21T08:30:48;31.10;41.70
19214;DHT22;9741;51.020;5.304;2022-08-21T08:33:22;31.20;41.30
19214;DHT22;9741;51.020;5.304;2022-08-21T08:35:53;31.20;41.00
19214;DHT22;9741;51.020;5.304;2022-08-21T08:38:29;31.20;40.90
19214;DHT22;9741;51.020;5.304;2022-08-21T08:41:10;31.10;40.80
19214;DHT22;9741;51.020;5.304;2022-08-21T08:43:50;31.20;40.80
19214;DHT22;9741;51.020;5.304;2022-08-21T08:46:38;31.20;40.80
19214;DHT22;9741;51.020;5.304;2022-08-21T08:49:39;31.10;40.80
19214;DHT22;9741;51.020;5.304;2022-08-21T08:52:18;31.10;41.10
19214;DHT22;9741;51.020;5.304;2022-08-21T08:54:55;31.00;41.20
19214;DHT22;9741;51.020;5.304;2022-08-21T08:57:30;31.00;40.90
19214;DHT22;9741;51.020;5.304;2022-08-21T09:00:03;30.80;40.80
19214;DHT22;9741;51.020;5.304;2022-08-21T09:02:35;30.70;41.20
19214;DHT22;9741;51.020;5.304;2022-08-21T09:05:24;30.60;41.10
19214;DHT22;9741;51.020;5.304;2022-08-21T09:08:14;30.60;41.00
19214;DHT22;9741;51.020;5.304;2022-08-21T09:10:57;30.50;40.70
19214;DHT22;9741;51.020;5.304;2022-08-21T09:13:37;30.40;40.60
19214;DHT22;9741;51.020;5.304;2022-08-21T09:16:13;30.30;40.60
19214;DHT22;9741;51.020;5.304;2022-08-21T09:18:59;30.30;40.60
19214;DHT22;9741;51.020;5.304;2022-08-21T09:21:41;30.20;40.30
19214;DHT22;9741;51.020;5.304;2022-08-21T09:24:49;30.10;40.10
19214;DHT22;9741;51.020;5.304;2022-08-21T09:27:31;30.20;40.40
19214;DHT22;9741;51.020;5.304;2022-08-21T09:30:03;30.30;40.30
19214;DHT22;9741;51.020;5.304;2022-08-21T09:32:36;30.40;40.30
19214;DHT22;9741;51.020;5.304;2022-08-21T09:35:12;30.50;40.00
19214;DHT22;9741;51.020;5.304;2022-08-21T09:37:52;30.70;39.70
19214;DHT22;9741;51.020;5.304;2022-08-21T09:40:29;30.90;39.30
19214;DHT22;9741;51.020;5.304;2022-08-21T09:43:01;31.10;39.30
19214;DHT22;9741;51.020;5.304;2022-08-21T09:45:33;31.30;39.20
19214;DHT22;9741;51.020;5.304;2022-08-21T09:48:11;31.60;39.20
19214;DHT22;9741;51.020;5.304;2022-08-21T09:50:43;31.90;38.80
19214;DHT22;9741;51.020;5.304;2022-08-21T09:53:45;32.30;38.60
19214;DHT22;9741;51.020;5.304;2022-08-21T09:56:52;32.70;38.70
19214;DHT22;9741;51.020;5.304;2022-08-21T09:59:40;33.00;37.80
19214;DHT22;9741;51.020;5.304;2022-08-21T10:02:28;33.10;37.50
19214;DHT22;9741;51.020;5.304;2022-08-21T10:05:01;33.10;37.40
19214;DHT22;9741;51.020;5.304;2022-08-21T10:07:36;32.90;37.50
19214;DHT22;9741;51.020;5.304;2022-08-21T10:10:15;32.80;37.60
19214;DHT22;9741;51.020;5.304;2022-08-21T10:12:52;32.70;37.20
19214;DHT22;9741;51.020;5.304;2022-08-21T10:15:39;32.60;37.40
19214;DHT22;9741;51.020;5.304;2022-08-21T10:18:21;32.60;37.50
19214;DHT22;9741;51.020;5.304;2022-08-21T10:21:00;32.60;37.20
19214;DHT22;9741;51.020;5.304;2022-08-21T10:23:54;32.50;36.70
19214;DHT22;9741;51.020;5.304;2022-08-21T10:26:47;32.40;36.90
19214;DHT22;9741;51.020;5.304;2022-08-21T10:29:35;32.00;37.00
19214;DHT22;9741;51.020;5.304;2022-08-21T10:32:23;31.70;37.30
19214;DHT22;9741;51.020;5.304;2022-08-21T10:35:02;31.40;37.60
19214;DHT22;9741;51.020;5.304;2022-08-21T10:37:52;31.20;37.60
19214;DHT22;9741;51.020;5.304;2022-08-21T10:40:48;31.00;37.30
19214;DHT22;9741;51.020;5.304;2022-08-21T10:43:35;30.80;37.40
19214;DHT22;9741;51.020;5.304;2022-08-21T10:46:14;30.50;37.40
19214;DHT22;9741;51.020;5.304;2022-08-21T10:48:50;30.30;37.30
19214;DHT22;9741;51.020;5.304;2022-08-21T10:51:26;30.00;37.50
19214;DHT22;9741;51.020;5.304;2022-08-21T10:54:05;29.80;37.60
19214;DHT22;9741;51.020;5.304;2022-08-21T10:56:41;29.60;37.70
19214;DHT22;9741;51.020;5.304;2022-08-21T10:59:30;29.40;38.00
19214;DHT22;9741;51.020;5.304;2022-08-21T11:02:07;29.30;38.10
19214;DHT22;9741;51.020;5.304;2022-08-21T11:04:52;29.30;38.10
19214;DHT22;9741;51.020;5.304;2022-08-21T11:07:33;29.20;38.30
19214;DHT22;9741;51.020;5.304;2022-08-21T11:10:13;29.20;38.60
19214;DHT22;9741;51.020;5.304;2022-08-21T11:12:48;29.10;38.70
19214;DHT22;9741;51.020;5.304;2022-08-21T11:15:33;29.00;38.60
19214;DHT22;9741;51.020;5.304;2022-08-21T11:18:19;28.90;38.90
19214;DHT22;9741;51.020;5.304;2022-08-21T11:21:03;29.00;39.30
19214;DHT22;9741;51.020;5.304;2022-08-21T11:23:45;29.10;39.40
19214;DHT22;9741;51.020;5.304;2022-08-21T11:26:22;29.20;39.30
19214;DHT22;9741;51.020;5.304;2022-08-21T11:29:01;29.30;39.40
19214;DHT22;9741;51.020;5.304;2022-08-21T11:32:20;29.40;39.30
19214;DHT22;9741;51.020;5.304;2022-08-21T11:34:57;29.50;39.40
19214;DHT22;9741;51.020;5.304;2022-08-21T11:37:49;29.50;39.10
19214;DHT22;9741;51.020;5.304;2022-08-21T11:40:52;29.40;39.10
19214;DHT22;9741;51.020;5.304;2022-08-21T11:43:36;29.30;38.90
19214;DHT22;9741;51.020;5.304;2022-08-21T11:46:20;29.10;38.80
19214;DHT22;9741;51.020;5.304;2022-08-21T11:49:17;28.90;39.00
19214;DHT22;9741;51.020;5.304;2022-08-21T11:51:56;28.80;39.20
19214;DHT22;9741;51.020;5.304;2022-08-21T11:54:34;28.60;39.10
19214;DHT22;9741;51.020;5.304;2022-08-21T11:57:12;28.50;39.50
19214;DHT22;9741;51.020;5.304;2022-08-21T11:59:49;28.40;39.60
19214;DHT22;9741;51.020;5.304;2022-08-21T12:02:24;28.30;39.70
19214;DHT22;9741;51.020;5.304;2022-08-21T12:05:04;28.20;39.50
19214;DHT22;9741;51.020;5.304;2022-08-21T12:07:35;28.10;39.40
19214;DHT22;9741;51.020;5.304;2022-08-21T12:10:11;27.90;39.50
19214;DHT22;9741;51.020;5.304;2022-08-21T12:12:44;27.80;39.80
19214;DHT22;9741;51.020;5.304;2022-08-21T12:15:27;27.80;40.00
19214;DHT22;9741;51.020;5.304;2022-08-21T12:18:20;27.70;39.80
19214;DHT22;9741;51.020;5.304;2022-08-21T12:21:05;27.60;40.10
19214;DHT22;9741;51.020;5.304;2022-08-21T12:23:46;27.50;40.00
19214;DHT22;9741;51.020;5.304;2022-08-21T12:26:27;27.50;40.20
19214;DHT22;9741;51.020;5.304;2022-08-21T12:29:13;27.50;40.10
19214;DHT22;9741;51.020;5.304;2022-08-21T12:31:56;27.40;40.10
19214;DHT22;9741;51.020;5.304;2022-08-21T12:34:34;27.30;40.20
19214;DHT22;9741;51.020;5.304;2022-08-21T12:37:18;27.30;40.30
19214;DHT22;9741;51.020;5.304;2022-08-21T12:39:54;27.20;40.10
19214;DHT22;9741;51.020;5.304;2022-08-21T12:42:39;27.20;40.30
19214;DHT22;9741;51.020;5.304;2022-08-21T12:45:28;27.20;40.40
19214;DHT22;9741;51.020;5.304;2022-08-21T12:48:03;27.30;40.30
19214;DHT22;9741;51.020;5.304;2022-08-21T12:50:40;27.40;40.30
19214;DHT22;9741;51.020;5.304;2022-08-21T12:53:26;27.50;40.10
19214;DHT22;9741;51.020;5.304;2022-08-21T12:55:55;27.60;40.00
19214;DHT22;9741;51.020;5.304;2022-08-21T12:58:29;27.60;39.90
19214;DHT22;9741;51.020;5.304;2022-08-21T13:01:13;27.60;39.90
19214;DHT22;9741;51.020;5.304;2022-08-21T13:03:44;27.60;39.70
19214;DHT22;9741;51.020;5.304;2022-08-21T13:06:17;27.60;39.60
19214;DHT22;9741;51.020;5.304;2022-08-21T13:08:58;27.60;39.60
19214;DHT22;9741;51.020;5.304;2022-08-21T13:11:33;27.60;39.80
19214;DHT22;9741;51.020;5.304;2022-08-21T13:14:03;27.70;39.80
19214;DHT22;9741;51.020;5.304;2022-08-21T13:16:38;27.80;39.70
19214;DHT22;9741;51.020;5.304;2022-08-21T13:19:18;27.80;39.80
19214;DHT22;9741;51.020;5.304;2022-08-21T13:21:50;27.90;39.30
19214;DHT22;9741;51.020;5.304;2022-08-21T13:24:40;27.90;39.20
19214;DHT22;9741;51.020;5.304;2022-08-21T13:27:21;27.90;39.00
19214;DHT22;9741;51.020;5.304;2022-08-21T13:30:21;28.00;39.40
19214;DHT22;9741;51.020;5.304;2022-08-21T13:32:54;28.10;39.20
19214;DHT22;9741;51.020;5.304;2022-08-21T13:35:27;28.00;39.20
19214;DHT22;9741;51.020;5.304;2022-08-21T13:38:04;28.00;39.10
19214;DHT22;9741;51.020;5.304;2022-08-21T13:40:44;28.00;39.00
19214;DHT22;9741;51.020;5.304;2022-08-21T13:43:16;28.10;38.90
19214;DHT22;9741;51.020;5.304;2022-08-21T13:45:53;28.00;39.10
19214;DHT22;9741;51.020;5.304;2022-08-21T13:48:28;28.00;39.20
19214;DHT22;9741;51.020;5.304;2022-08-21T13:50:59;28.00;38.90
19214;DHT22;9741;51.020;5.304;2022-08-21T13:53:44;28.00;39.10
19214;DHT22;9741;51.020;5.304;2022-08-21T13:56:41;28.00;39.30
19214;DHT22;9741;51.020;5.304;2022-08-21T13:59:09;27.90;38.90
19214;DHT22;9741;51.020;5.304;2022-08-21T14:01:51;27.90;39.00
19214;DHT22;9741;51.020;5.304;2022-08-21T14:04:33;27.90;38.80
19214;DHT22;9741;51.020;5.304;2022-08-21T14:07:15;27.90;38.60
19214;DHT22;9741;51.020;5.304;2022-08-21T14:09:47;27.90;38.60
19214;DHT22;9741;51.020;5.304;2022-08-21T14:12:26;27.90;38.40
19214;DHT22;9741;51.020;5.304;2022-08-21T14:14:57;28.00;38.60
19214;DHT22;9741;51.020;5.304;2022-08-21T14:17:34;28.10;38.60
19214;DHT22;9741;51.020;5.304;2022-08-21T14:20:04;28.10;38.30
19214;DHT22;9741;51.020;5.304;2022-08-21T14:22:44;28.10;38.40
19214;DHT22;9741;51.020;5.304;2022-08-21T14:25:26;28.10;38.50
19214;DHT22;9741;51.020;5.304;2022-08-21T14:28:11;28.20;38.50
19214;DHT22;9741;51.020;5.304;2022-08-21T14:30:44;28.20;38.40
19214;DHT22;9741;51.020;5.304;2022-08-21T14:33:27;28.20;38.50
19214;DHT22;9741;51.020;5.304;2022-08-21T14:35:57;28.20;38.40
19214;DHT22;9741;51.020;5.304;2022-08-21T14:38:26;28.20;38.50
19214;DHT22;9741;51.020;5.304;2022-08-21T14:41:00;28.20;38.70
19214;DHT22;9741;51.020;5.304;2022-08-21T14:43:40;28.20;38.70
19214;DHT22;9741;51.020;5.304;2022-08-21T14:46:08;28.30;38.90
19214;DHT22;9741;51.020;5.304;2022-08-21T14:48:39;28.40;38.80
19214;DHT22;9741;51.020;5.304;2022-08-21T14:51:16;28.50;38.60
19214;DHT22;9741;51.020;5.304;2022-08-21T14:53:44;28.50;38.50
19214;DHT22;9741;51.020;5.304;2022-08-21T14:56:26;28.60;38.40
19214;DHT22;9741;51.020;5.304;2022-08-21T14:59:10;28.60;38.40
19214;DHT22;9741;51.020;5.304;2022-08-21T15:01:42;28.60;38.20
19214;DHT22;9741;51.020;5.304;2022-08-21T15:04:11;28.60;38.20
19214;DHT22;9741;51.020;5.304;2022-08-21T15:06:48;28.60;38.30
19214;DHT22;9741;51.020;5.304;2022-08-21T15:09:16;28.50;37.90
19214;DHT22;9741;51.020;5.304;2022-08-21T15:11:47;28.50;38.20
19214;DHT22;9741;51.020;5.304;2022-08-21T15:14:24;28.60;38.30
19214;DHT22;9741;51.020;5.304;2022-08-21T15:16:56;28.60;38.20
19214;DHT22;9741;51.020;5.304;2022-08-21T15:19:27;28.50;38.00
19214;DHT22;9741;51.020;5.304;2022-08-21T15:21:57;28.40;37.90
19214;DHT22;9741;51.020;5.304;2022-08-21T15:24:27;28.40;38.10
19214;DHT22;9741;51.020;5.304;2022-08-21T15:27:04;28.40;38.00
19214;DHT22;9741;51.020;5.304;2022-08-21T15:29:41;28.30;37.90
19214;DHT22;9741;51.020;5.304;2022-08-21T15:32:19;28.30;37.90
19214;DHT22;9741;51.020;5.304;2022-08-21T15:34:51;28.30;38.50
19214;DHT22;9741;51.020;5.304;2022-08-21T15:37:30;28.20;38.10
19214;DHT22;9741;51.020;5.304;2022-08-21T15:39:59;28.20;38.30
19214;DHT22;9741;51.020;5.304;2022-08-21T15:42:32;28.10;38.40
19214;DHT22;9741;51.020;5.304;2022-08-21T15:45:04;28.10;38.80
19214;DHT22;9741;51.020;5.304;2022-08-21T15:47:34;28.10;38.70
19214;DHT22;9741;51.020;5.304;2022-08-21T15:50:09;28.10;38.80
19214;DHT22;9741;51.020;5.304;2022-08-21T15:52:39;28.10;38.70
19214;DHT22;9741;51.020;5.304;2022-08-21T15:55:18;28.10;38.90
19214;DHT22;9741;51.020;5.304;2022-08-21T15:57:48;28.20;38.80
19214;DHT22;9741;51.020;5.304;2022-08-21T16:00:31;28.20;38.90
19214;DHT22;9741;51.020;5.304;2022-08-21T16:03:03;28.20;38.70
19214;DHT22;9741;51.020;5.304;2022-08-21T16:05:34;28.10;38.60
19214;DHT22;9741;51.020;5.304;2022-08-21T16:08:05;28.10;38.80
19214;DHT22;9741;51.020;5.304;2022-08-21T16:10:36;28.00;38.90
19214;DHT22;9741;51.020;5.304;2022-08-21T16:13:14;28.00;39.20
19214;DHT22;9741;51.020;5.304;2022-08-21T16:15:47;28.00;39.30
19214;DHT22;9741;51.020;5.304;2022-08-21T16:18:20;28.00;39.00
19214;DHT22;9741;51.020;5.304;2022-08-21T16:20:49;27.90;38.90
19214;DHT22;9741;51.020;5.304;2022-08-21T16:23:20;27.80;39.20
19214;DHT22;9741;51.020;5.304;2022-08-21T16:25:51;27.70;39.30
19214;DHT22;9741;51.020;5.304;2022-08-21T16:28:21;27.50;39.80
19214;DHT22;9741;51.020;5.304;2022-08-21T16:31:01;27.40;39.10
19214;DHT22;9741;51.020;5.304;2022-08-21T16:33:33;27.30;39.30
19214;DHT22;9741;51.020;5.304;2022-08-21T16:36:05;27.20;39.40
19214;DHT22;9741;51.020;5.304;2022-08-21T16:38:41;27.10;39.50